createdAt,value
2023-01-09T00:02:25.890Z,9.30
2023-01-09T00:04:54.748Z,10.75
2023-01-09T00:07:22.207Z,12.27
2023-01-09T00:09:50.486Z,11.60
2023-01-09T00:12:18.071Z,9.60
2023-01-09T00:14:45.626Z,8.63
2023-01-09T00:17:13.033Z,11.70
2023-01-09T00:19:40.709Z,10.07
2023-01-09T00:22:09.706Z,10.93
2023-01-09T00:24:37.417Z,10.50
2023-01-09T00:27:05.973Z,10.27
2023-01-09T00:29:33.542Z,9.57
2023-01-09T00:32:01.063Z,10.43
2023-01-09T00:34:29.069Z,10.38
2023-01-09T00:36:57.054Z,11.40
2023-01-09T00:39:25.963Z,14.80
2023-01-09T00:41:56.394Z,9.43
2023-01-09T00:44:25.961Z,10.00
2023-01-09T00:46:56.702Z,11.63
2023-01-09T00:49:24.851Z,9.82
2023-01-09T00:51:55.175Z,12.43
2023-01-09T00:54:23.590Z,12.07
2023-01-09T00:56:52.495Z,12.00
2023-01-09T00:59:19.966Z,10.70
2023-01-09T01:01:47.556Z,15.80
2023-01-09T01:04:15.116Z,12.63
2023-01-09T01:06:42.589Z,12.13
2023-01-09T01:09:10.092Z,10.93
2023-01-09T01:11:37.576Z,12.13
2023-01-09T01:14:06.448Z,11.98
2023-01-09T01:16:33.984Z,13.50
2023-01-09T01:19:01.476Z,12.13
2023-01-09T01:21:28.928Z,9.40
2023-01-09T01:23:56.366Z,12.10
2023-01-09T01:26:24.408Z,13.45
2023-01-09T01:28:51.870Z,14.32
2023-01-09T01:31:21.289Z,9.88
2023-01-09T01:33:48.791Z,10.32
2023-01-09T01:36:16.225Z,11.43
2023-01-09T01:38:44.509Z,12.15
2023-01-09T01:41:11.955Z,11.30
2023-01-09T01:43:52.860Z,11.45
2023-01-09T01:46:22.093Z,11.50
2023-01-09T01:48:54.365Z,11.65
2023-01-09T01:51:25.107Z,10.00
2023-01-09T01:53:59.643Z,12.30
2023-01-09T01:56:30.519Z,11.88
2023-01-09T01:59:03.522Z,9.95
2023-01-09T02:01:33.003Z,10.65
2023-01-09T02:04:02.451Z,10.20
2023-01-09T02:06:31.060Z,11.45
2023-01-09T02:08:58.724Z,10.70
2023-01-09T02:11:27.264Z,11.68
2023-01-09T02:13:54.768Z,10.77
2023-01-09T02:16:44.623Z,12.43
2023-01-09T02:19:35.554Z,15.25
2023-01-09T02:22:12.835Z,13.35
2023-01-09T02:25:08.482Z,12.45
2023-01-09T02:28:08.883Z,14.05
2023-01-09T02:30:43.979Z,14.38
2023-01-09T02:33:42.633Z,13.52
2023-01-09T02:36:21.722Z,13.25
2023-01-09T02:38:59.980Z,15.18
2023-01-09T02:41:33.435Z,13.95
2023-01-09T02:44:16.314Z,13.25
2023-01-09T02:46:45.285Z,11.70
2023-01-09T02:49:13.809Z,13.60
2023-01-09T02:51:49.972Z,13.38
2023-01-09T02:54:29.556Z,10.95
2023-01-09T02:57:11.801Z,12.18
2023-01-09T02:59:54.028Z,10.88
2023-01-09T03:02:39.244Z,20.17
2023-01-09T03:05:13.809Z,13.07
2023-01-09T03:07:45.699Z,16.35
2023-01-09T03:10:20.222Z,16.10
2023-01-09T03:12:52.720Z,14.27
2023-01-09T03:15:24.737Z,11.75
2023-01-09T03:17:55.924Z,10.13
2023-01-09T03:20:26.208Z,9.90
2023-01-09T03:22:55.047Z,16.85
2023-01-09T03:25:22.699Z,11.77
2023-01-09T03:27:54.123Z,11.60
2023-01-09T03:30:21.998Z,12.73
2023-01-09T03:32:50.129Z,14.05
2023-01-09T03:35:19.023Z,12.00
2023-01-09T03:37:46.819Z,9.32
2023-01-09T03:40:14.704Z,9.52
2023-01-09T03:42:42.295Z,11.15
2023-01-09T03:45:10.336Z,9.52
2023-01-09T03:47:37.815Z,10.70
2023-01-09T03:50:06.361Z,11.63
2023-01-09T03:52:35.366Z,13.48
2023-01-09T03:55:02.940Z,11.77
2023-01-09T03:57:30.420Z,11.27
2023-01-09T03:59:57.901Z,10.23
2023-01-09T04:02:25.415Z,15.13
2023-01-09T04:04:53.075Z,12.23
2023-01-09T04:07:20.492Z,20.55
2023-01-09T04:09:49.930Z,18.15
2023-01-09T04:12:17.546Z,17.45
2023-01-09T04:14:45.136Z,16.02
2023-01-09T04:17:12.626Z,16.75
2023-01-09T04:19:40.096Z,15.25
2023-01-09T04:22:08.397Z,221.63
2023-01-09T04:24:36.373Z,22.75
2023-01-09T04:27:05.393Z,24.15
2023-01-09T04:29:32.920Z,25.33
2023-01-09T04:32:00.495Z,28.48
2023-01-09T04:34:28.117Z,25.33
2023-01-09T04:36:55.737Z,23.35
2023-01-09T04:39:23.479Z,24.98
2023-01-09T04:41:51.016Z,22.98
2023-01-09T04:44:21.785Z,23.48
2023-01-09T04:46:49.666Z,26.33
2023-01-09T04:49:17.316Z,25.20
2023-01-09T04:51:44.838Z,23.40
2023-01-09T04:54:12.340Z,24.42
2023-01-09T04:56:40.220Z,26.30
2023-01-09T04:59:08.153Z,25.13
2023-01-09T05:01:37.496Z,23.08
2023-01-09T05:04:05.987Z,19.35
2023-01-09T05:06:33.618Z,24.08
2023-01-09T05:09:01.696Z,23.15
2023-01-09T05:11:29.401Z,18.60
2023-01-09T05:13:57.230Z,22.50
2023-01-09T05:16:24.984Z,27.83
2023-01-09T05:18:53.901Z,25.85
2023-01-09T05:21:21.586Z,21.83
2023-01-09T05:23:49.180Z,36.40
2023-01-09T05:26:16.690Z,27.20
2023-01-09T05:28:44.090Z,25.70
2023-01-09T05:31:11.699Z,33.38
2023-01-09T05:33:39.309Z,31.20
2023-01-09T05:36:09.493Z,31.48
2023-01-09T05:38:37.132Z,28.08
2023-01-09T05:41:04.788Z,27.40
2023-01-09T05:43:32.222Z,33.72
2023-01-09T05:45:59.787Z,31.40
2023-01-09T05:48:27.310Z,26.50
2023-01-09T05:50:54.923Z,29.50
2023-01-09T05:53:23.972Z,35.90
2023-01-09T05:55:51.889Z,36.00
2023-01-09T05:58:19.352Z,37.78
2023-01-09T06:00:46.920Z,34.70
2023-01-09T06:03:14.388Z,33.28
2023-01-09T06:05:41.913Z,36.05
2023-01-09T06:08:09.369Z,39.63
2023-01-09T06:10:38.353Z,37.20
2023-01-09T06:13:05.949Z,33.55
2023-01-09T06:15:33.344Z,37.92
2023-01-09T06:18:00.947Z,32.60
2023-01-09T06:20:28.688Z,31.70
2023-01-09T06:22:56.472Z,34.80
2023-01-09T06:25:24.150Z,38.78
2023-01-09T06:27:54.031Z,32.15
2023-01-09T06:32:50.395Z,37.40
2023-01-09T06:35:18.788Z,27.08
2023-01-09T06:37:46.628Z,35.63
2023-01-09T06:40:15.338Z,32.88
2023-01-09T06:42:46.483Z,33.37
2023-01-09T06:45:16.773Z,37.40
2023-01-09T06:47:44.667Z,34.85
2023-01-09T06:50:12.984Z,29.65
2023-01-09T06:52:40.632Z,27.80
2023-01-09T06:55:09.455Z,33.13
2023-01-09T06:57:37.502Z,31.98
2023-01-09T07:00:06.138Z,24.77
2023-01-09T07:02:35.186Z,29.45
2023-01-09T07:05:03.005Z,28.75
2023-01-09T07:07:30.635Z,26.70
2023-01-09T07:09:58.231Z,33.58
2023-01-09T07:12:26.594Z,38.05
2023-01-09T07:14:56.180Z,61.95
2023-01-09T07:17:25.004Z,57.17
2023-01-09T07:19:54.112Z,42.00
2023-01-09T07:22:21.696Z,34.95
2023-01-09T07:24:49.213Z,52.17
2023-01-09T07:27:17.892Z,31.35
2023-01-09T07:29:45.824Z,33.03
2023-01-09T07:32:13.307Z,35.63
2023-01-09T07:34:41.020Z,38.40
2023-01-09T07:37:09.926Z,38.08
2023-01-09T07:39:37.473Z,47.25
2023-01-09T07:42:05.147Z,45.63
2023-01-09T07:44:33.283Z,42.78
2023-01-09T07:47:01.028Z,41.28
2023-01-09T07:49:28.479Z,38.28
2023-01-09T07:51:56.724Z,58.30
2023-01-09T07:54:25.806Z,78.55
2023-01-09T07:56:53.324Z,46.90
2023-01-09T07:59:21.627Z,33.90
2023-01-09T08:01:49.414Z,38.28
2023-01-09T08:04:17.138Z,35.17
2023-01-09T08:06:45.731Z,39.20
2023-01-09T08:09:13.864Z,48.72
2023-01-09T08:11:43.015Z,65.47
2023-01-09T08:14:11.503Z,61.60
2023-01-09T08:16:39.391Z,60.57
2023-01-09T08:19:06.957Z,51.45
2023-01-09T08:21:34.459Z,56.63
2023-01-09T08:24:02.488Z,63.00
2023-01-09T08:26:30.819Z,55.38
2023-01-09T08:29:00.230Z,50.70
2023-01-09T08:31:27.770Z,48.75
2023-01-09T08:33:55.392Z,43.20
2023-01-09T08:36:22.943Z,45.80
2023-01-09T08:38:50.646Z,52.67
2023-01-09T08:41:18.132Z,47.55
2023-01-09T08:43:45.706Z,51.53
2023-01-09T08:46:21.593Z,42.45
2023-01-09T08:48:49.467Z,41.67
2023-01-09T08:51:17.209Z,50.17
2023-01-09T08:53:44.798Z,39.45
2023-01-09T08:56:12.374Z,38.17
2023-01-09T08:58:39.939Z,40.92
2023-01-09T09:01:08.300Z,32.55
2023-01-09T09:03:37.708Z,36.78
2023-01-09T09:06:06.223Z,53.05
2023-01-09T09:08:33.648Z,42.22
2023-01-09T09:11:01.462Z,39.22
2023-01-09T09:13:29.178Z,38.00
2023-01-09T09:15:56.984Z,39.35
2023-01-09T09:18:24.671Z,36.00
2023-01-09T09:20:53.728Z,39.80
2023-01-09T09:23:21.289Z,52.88
2023-01-09T09:25:49.030Z,37.90
2023-01-09T09:28:16.724Z,38.20
2023-01-09T09:30:44.553Z,40.15
2023-01-09T09:33:12.581Z,41.47
2023-01-09T09:35:40.498Z,37.92
2023-01-09T09:38:11.072Z,38.88
2023-01-09T09:40:56.911Z,38.45
2023-01-09T09:43:54.137Z,41.70
2023-01-09T09:46:30.234Z,52.13
2023-01-09T09:49:02.812Z,39.72
2023-01-09T09:51:49.580Z,39.50
2023-01-09T09:54:24.208Z,42.38
2023-01-09T09:56:56.819Z,39.03
2023-01-09T09:59:27.714Z,41.20
2023-01-09T10:01:59.230Z,40.75
2023-01-09T10:04:31.048Z,43.40
2023-01-09T10:07:01.950Z,37.45
2023-01-09T10:09:40.996Z,43.83
2023-01-09T10:12:18.238Z,45.50
2023-01-09T10:14:45.915Z,37.13
2023-01-09T10:17:29.124Z,34.28
2023-01-09T10:20:20.301Z,33.35
2023-01-09T10:22:59.723Z,43.55
2023-01-09T10:25:37.199Z,33.85
2023-01-09T10:28:20.935Z,50.80
2023-01-09T10:30:52.574Z,48.28
2023-01-09T10:33:35.700Z,38.45
2023-01-09T10:36:40.508Z,26.77
2023-01-09T10:39:15.484Z,38.70
2023-01-09T10:41:54.715Z,44.78
2023-01-09T10:44:27.641Z,50.43
2023-01-09T10:46:56.525Z,54.13
2023-01-09T10:49:24.798Z,53.47
2023-01-09T10:51:59.429Z,42.70
2023-01-09T10:54:30.072Z,50.65
2023-01-09T10:57:06.309Z,52.65
2023-01-09T10:59:34.073Z,50.80
2023-01-09T11:02:02.038Z,105.70
2023-01-09T11:04:32.699Z,71.32
2023-01-09T11:07:03.500Z,173.30
2023-01-09T11:09:55.555Z,207.77
2023-01-09T11:12:26.451Z,71.50
2023-01-09T11:14:53.983Z,141.45
2023-01-09T11:17:27.279Z,109.03
2023-01-09T11:20:03.100Z,166.63
2023-01-09T11:22:43.342Z,103.65
2023-01-09T11:25:13.891Z,83.05
2023-01-09T11:27:43.400Z,121.63
2023-01-09T11:30:18.307Z,114.55
2023-01-09T11:32:47.519Z,105.35
2023-01-09T11:35:19.859Z,85.95
2023-01-09T11:37:49.887Z,102.28
2023-01-09T11:40:20.713Z,100.70
2023-01-09T11:43:14.570Z,126.20
2023-01-09T11:45:56.375Z,109.60
2023-01-09T11:48:40.949Z,110.35
2023-01-09T11:51:21.089Z,107.50
2023-01-09T11:54:01.255Z,104.70
2023-01-09T11:56:29.923Z,101.97
2023-01-09T11:58:59.555Z,106.60
2023-01-09T12:01:45.494Z,99.15
2023-01-09T12:04:21.333Z,94.38
2023-01-09T12:07:00.207Z,106.47
2023-01-09T12:09:37.320Z,100.73
2023-01-09T12:12:18.494Z,115.30
2023-01-09T12:15:10.025Z,111.93
2023-01-09T12:17:52.706Z,97.03
2023-01-09T12:20:45.933Z,106.15
2023-01-09T12:23:25.981Z,113.63
2023-01-09T12:26:05.888Z,132.23
2023-01-09T12:28:54.571Z,168.85
2023-01-09T12:31:40.078Z,230.85
2023-01-09T12:34:24.960Z,269.05
2023-01-09T12:37:02.820Z,235.38
2023-01-09T12:39:37.395Z,284.10
2023-01-09T12:42:29.259Z,255.60
2023-01-09T12:45:01.824Z,287.33
2023-01-09T12:47:45.200Z,270.75
2023-01-09T12:50:48.196Z,249.32
2023-01-09T12:53:21.496Z,193.43
2023-01-09T12:55:54.058Z,169.73
2023-01-09T12:58:31.079Z,201.18
2023-01-09T13:01:02.696Z,183.10
2023-01-09T13:03:37.440Z,153.70
2023-01-09T13:06:11.356Z,153.63
2023-01-09T13:08:43.478Z,150.02
2023-01-09T13:11:20.442Z,141.90
2023-01-09T13:13:54.702Z,148.77
2023-01-09T13:16:28.695Z,127.38
2023-01-09T13:19:03.836Z,143.07
2023-01-09T13:21:31.976Z,135.25
2023-01-09T13:24:07.308Z,107.25
2023-01-09T13:26:40.368Z,119.35
2023-01-09T13:29:12.971Z,114.85
2023-01-09T13:31:57.014Z,115.20
2023-01-09T13:34:29.681Z,120.97
2023-01-09T13:36:59.105Z,136.15
2023-01-09T13:39:29.375Z,121.20
2023-01-09T13:41:59.976Z,119.28
2023-01-09T13:44:29.034Z,123.30
2023-01-09T13:46:58.766Z,104.88
2023-01-09T13:52:01.247Z,115.93
2023-01-09T13:55:03.654Z,110.10
2023-01-09T13:57:34.101Z,104.38
2023-01-09T14:00:39.232Z,104.32
2023-01-09T14:03:19.975Z,105.75
2023-01-09T14:06:11.538Z,99.13
2023-01-09T14:08:40.661Z,90.38
2023-01-09T14:11:08.967Z,93.55
2023-01-09T14:13:41.498Z,86.25
2023-01-09T14:16:17.946Z,172.05
2023-01-09T14:18:50.915Z,91.40
2023-01-09T14:21:20.895Z,91.57
2023-01-09T14:23:59.232Z,81.43
2023-01-09T14:26:45.263Z,81.60
2023-01-09T14:29:44.699Z,79.97
2023-01-09T14:32:43.795Z,74.25
2023-01-09T14:35:16.631Z,89.32
2023-01-09T14:37:55.423Z,72.20
2023-01-09T14:40:24.276Z,76.23
2023-01-09T14:42:54.759Z,69.03
2023-01-09T14:45:24.405Z,61.40
2023-01-09T14:47:57.160Z,76.80
2023-01-09T14:50:32.459Z,68.55
2023-01-09T14:53:05.391Z,65.63
2023-01-09T14:55:40.416Z,69.85
2023-01-09T14:58:12.683Z,70.93
2023-01-09T15:00:49.639Z,60.80
2023-01-09T15:03:17.585Z,62.40
2023-01-09T15:05:46.651Z,59.35
2023-01-09T15:08:20.060Z,51.10
2023-01-09T15:10:51.176Z,40.65
2023-01-09T15:13:23.694Z,29.05
2023-01-09T15:15:51.455Z,37.25
2023-01-09T15:18:23.454Z,36.67
2023-01-09T15:20:59.189Z,37.30
2023-01-09T15:23:30.053Z,36.13
2023-01-09T15:25:58.369Z,39.40
2023-01-09T15:28:29.640Z,36.45
2023-01-09T15:31:03.078Z,38.80
2023-01-09T15:33:31.501Z,37.80
2023-01-09T15:35:59.591Z,39.22
2023-01-09T15:38:31.471Z,38.05
2023-01-09T15:41:01.213Z,32.92
2023-01-09T15:43:31.307Z,37.38
2023-01-09T15:45:59.355Z,30.70
2023-01-09T15:48:28.927Z,34.60
2023-01-09T15:51:01.390Z,34.33
2023-01-09T15:53:30.821Z,35.28
2023-01-09T15:56:07.741Z,32.40
2023-01-09T15:58:37.933Z,33.80
2023-01-09T16:01:08.380Z,33.15
2023-01-09T16:03:37.378Z,36.75
2023-01-09T16:06:09.351Z,27.95
2023-01-09T16:08:41.631Z,30.63
2023-01-09T16:11:20.752Z,29.73
2023-01-09T16:13:48.563Z,29.00
2023-01-09T16:16:25.659Z,29.25
2023-01-09T16:18:54.516Z,27.48
2023-01-09T16:21:25.293Z,30.30
2023-01-09T16:24:25.461Z,30.10
2023-01-09T16:27:11.083Z,28.35
2023-01-09T16:29:45.548Z,30.45
2023-01-09T16:32:19.899Z,32.88
2023-01-09T16:34:52.337Z,29.65
2023-01-09T16:37:21.081Z,28.85
2023-01-09T16:40:25.925Z,31.20
2023-01-09T16:42:55.827Z,25.25
2023-01-09T16:45:25.803Z,26.50
2023-01-09T16:47:53.375Z,25.77
2023-01-09T16:50:21.145Z,32.17
2023-01-09T16:52:48.764Z,27.38
2023-01-09T16:55:18.176Z,30.27
2023-01-09T16:57:46.064Z,28.20
2023-01-09T17:00:16.355Z,26.65
2023-01-09T17:02:44.514Z,30.20
2023-01-09T17:05:13.208Z,30.33
2023-01-09T17:07:41.288Z,26.13
2023-01-09T17:10:21.690Z,25.60
2023-01-09T17:12:50.016Z,23.83
2023-01-09T17:15:19.258Z,24.00
2023-01-09T17:20:16.456Z,27.65
2023-01-09T17:25:15.642Z,26.20
2023-01-09T17:27:45.957Z,27.05
2023-01-09T17:30:18.742Z,24.70
2023-01-09T17:32:46.698Z,25.98
2023-01-09T17:35:14.673Z,27.77
2023-01-09T17:37:42.713Z,28.08
2023-01-09T17:40:18.063Z,22.30
2023-01-09T17:42:47.115Z,24.73
2023-01-09T17:45:15.608Z,25.67
2023-01-09T17:47:43.112Z,22.92
2023-01-09T17:50:18.210Z,22.52
2023-01-09T17:52:45.912Z,28.83
2023-01-09T17:55:13.503Z,22.52
2023-01-09T17:57:43.203Z,21.88
2023-01-09T18:00:24.343Z,25.67
2023-01-09T18:02:51.947Z,24.33
2023-01-09T18:05:19.746Z,24.05
2023-01-09T18:07:47.641Z,21.05
2023-01-09T18:10:17.034Z,31.08
2023-01-09T18:12:48.254Z,22.40
2023-01-09T18:15:17.722Z,24.30
2023-01-09T18:17:46.525Z,22.27
2023-01-09T18:20:15.063Z,20.53
2023-01-09T18:22:46.199Z,24.10
2023-01-09T18:25:13.766Z,27.88
2023-01-09T18:27:42.210Z,23.30
2023-01-09T18:30:12.496Z,25.15
2023-01-09T18:32:41.857Z,21.95
2023-01-09T18:35:10.077Z,24.85
2023-01-09T18:37:38.155Z,26.38
2023-01-09T18:40:06.764Z,22.75
2023-01-09T18:42:34.282Z,23.92
2023-01-09T18:45:01.750Z,22.83
2023-01-09T18:47:29.338Z,22.75
2023-01-09T18:49:58.433Z,19.77
2023-01-09T18:52:25.985Z,21.92
2023-01-09T18:54:53.585Z,20.85
2023-01-09T18:57:21.337Z,20.55
2023-01-09T18:59:48.917Z,24.42
2023-01-09T19:02:20.213Z,24.63
2023-01-09T19:04:47.890Z,25.00
2023-01-09T19:07:17.336Z,23.55
2023-01-09T19:09:45.497Z,21.83
2023-01-09T19:12:13.254Z,23.95
2023-01-09T19:14:40.823Z,19.52
2023-01-09T19:17:08.384Z,20.63
2023-01-09T19:19:35.923Z,20.83
2023-01-09T19:22:03.352Z,23.48
2023-01-09T19:24:32.349Z,23.55
2023-01-09T19:27:00.663Z,21.33
2023-01-09T19:29:28.417Z,22.05
2023-01-09T19:31:56.033Z,20.73
2023-01-09T19:34:23.612Z,18.48
2023-01-09T19:36:51.600Z,21.13
2023-01-09T19:39:19.229Z,19.80
2023-01-09T19:41:48.128Z,23.17
2023-01-09T19:44:15.606Z,16.83
2023-01-09T19:46:43.035Z,23.77
2023-01-09T19:49:10.612Z,19.75
2023-01-09T19:51:38.125Z,18.85
2023-01-09T19:54:08.731Z,16.30
2023-01-09T19:56:36.409Z,16.75
2023-01-09T19:59:05.799Z,18.35
2023-01-09T20:01:35.406Z,17.67
2023-01-09T20:04:05.547Z,15.65
2023-01-09T20:06:33.581Z,15.48
2023-01-09T20:09:02.549Z,19.55
2023-01-09T20:11:31.615Z,14.67
2023-01-09T20:13:59.485Z,14.85
2023-01-09T20:16:30.257Z,16.50
2023-01-09T20:18:59.769Z,15.88
2023-01-09T20:21:28.716Z,15.20
2023-01-09T20:23:58.903Z,15.23
2023-01-09T20:26:27.652Z,14.88
2023-01-09T20:28:55.689Z,13.25
2023-01-09T20:31:24.208Z,14.88
2023-01-09T20:33:53.131Z,11.90
2023-01-09T20:36:21.014Z,13.03
2023-01-09T20:38:48.739Z,14.88
2023-01-09T20:41:17.259Z,102.68
2023-01-09T20:43:44.683Z,34.53
2023-01-09T20:46:12.184Z,10.60
2023-01-09T20:48:39.651Z,10.93
2023-01-09T20:51:09.033Z,12.05
2023-01-09T20:53:36.530Z,11.38
2023-01-09T20:56:06.269Z,12.10
2023-01-09T21:01:06.204Z,11.30
2023-01-09T21:03:33.913Z,11.57
2023-01-09T21:06:04.751Z,10.77
2023-01-09T21:08:34.440Z,11.32
2023-01-09T21:11:02.281Z,10.32
2023-01-09T21:13:30.098Z,9.77
2023-01-09T21:16:01.362Z,10.07
2023-01-09T21:18:28.945Z,9.57
2023-01-09T21:20:56.763Z,10.65
2023-01-09T21:23:24.524Z,9.35
2023-01-09T21:25:53.474Z,9.95
2023-01-09T21:28:20.911Z,9.20
2023-01-09T21:30:48.584Z,9.02
2023-01-09T21:33:16.841Z,11.60
2023-01-09T21:35:44.295Z,9.38
2023-01-09T21:38:12.055Z,10.13
2023-01-09T21:40:39.600Z,9.82
2023-01-09T21:43:10.471Z,8.35
2023-01-09T21:45:38.568Z,9.15
2023-01-09T21:48:07.033Z,9.02
2023-01-09T21:50:35.092Z,9.52
2023-01-09T21:53:02.832Z,8.90
2023-01-09T21:55:30.430Z,8.77
2023-01-09T21:57:58.185Z,8.20
2023-01-09T22:00:28.109Z,10.82
2023-01-09T22:02:55.936Z,14.80
2023-01-09T22:05:23.611Z,9.10
2023-01-09T22:07:51.179Z,9.88
2023-01-09T22:10:18.961Z,10.93
2023-01-09T22:12:50.388Z,10.82
2023-01-09T22:15:17.831Z,10.10
2023-01-09T22:17:46.742Z,10.45
2023-01-09T22:20:14.420Z,10.25
2023-01-09T22:22:41.976Z,9.23
2023-01-09T22:25:10.144Z,10.30
2023-01-09T22:27:37.616Z,10.63
2023-01-09T22:30:06.019Z,11.13
2023-01-09T22:32:35.093Z,10.27
2023-01-09T22:35:05.784Z,12.50
2023-01-09T22:37:34.240Z,11.20
2023-01-09T22:40:02.091Z,10.75
2023-01-09T22:42:29.532Z,10.13
2023-01-09T22:44:56.953Z,10.70
2023-01-09T22:47:24.391Z,11.02
2023-01-09T22:49:53.359Z,11.30
2023-01-09T22:52:23.226Z,9.30
2023-01-09T22:54:50.735Z,10.85
2023-01-09T22:57:18.174Z,13.00
2023-01-09T22:59:45.613Z,12.40
2023-01-09T23:02:13.189Z,12.65
2023-01-09T23:04:40.819Z,10.00
2023-01-09T23:07:08.260Z,14.07
2023-01-09T23:09:37.483Z,12.30
2023-01-09T23:12:05.814Z,10.07
2023-01-09T23:14:35.617Z,13.68
2023-01-09T23:19:30.654Z,11.90
2023-01-09T23:21:58.216Z,11.93
2023-01-09T23:24:27.933Z,14.55
2023-01-09T23:26:58.079Z,10.73
2023-01-09T23:29:26.338Z,11.30
2023-01-09T23:31:54.034Z,13.43
2023-01-09T23:34:22.937Z,11.30
2023-01-09T23:36:51.120Z,12.40
2023-01-09T23:39:18.682Z,11.60
2023-01-09T23:41:46.148Z,11.93
2023-01-09T23:44:15.078Z,11.32
2023-01-09T23:46:42.505Z,14.73
2023-01-09T23:49:10.129Z,13.98
2023-01-09T23:51:37.535Z,10.00
2023-01-09T23:54:06.962Z,11.77
2023-01-09T23:56:34.815Z,10.20
2023-01-09T23:59:04.744Z,14.90
